Terminal Aerodrome Forecast
Issued by NWS

Home | Current Version | Previous Version | Text Only | Print | Product List | Glossary On
Versions: 1 2 3 4 5 6 7 8 9 10 11 12 13 14 15 16 17 18
000
FTUS41 KCAR 181235 AAA
TAFBHB
TAF AMD
KBHB 181235Z 1813/1912 33012G20KT 3SM -SHSN BR OVC016
     FM181800 32010G18KT 6SM -SHRASN OVC028
     FM190000 31008KT P6SM BKN045
      AMD LTD TO CLD VIS AND WIND=

USA.gov is the U.S. government's official web portal to all federal, state and local government web resources and services.